Time;durP1;ratioP1;P1;durP2;ratioP2;P2;SDS_P1;SDS_P2;PMS_P1;PMS_P2;Temp;Humidity;BMP_temperature;BMP_pressure;BME280_temperature;BME280_humidity;BME280_pressure;Samples;Min_cycle;Max_cycle;Signal;HPM_P1;HPM_P2
2021/07/18 00:01:48;;;;;;;7.60;4.95;;;;;;;21.34;62.82;94248.28;5113867;27;20042;-64
2021/07/18 00:04:15;;;;;;;8.18;5.50;;;;;;;21.19;63.81;94242.38;5111336;27;20516;-64
2021/07/18 00:06:43;;;;;;;15.23;6.97;;;;;;;21.15;63.61;94249.38;5112837;27;20047;-64
2021/07/18 00:09:10;;;;;;;7.47;4.68;;;;;;;21.07;63.95;94236.94;5109742;27;20439;-64
2021/07/18 00:11:37;;;;;;;13.38;5.05;;;;;;;21.09;63.38;94241.91;5113860;27;20040;-64
2021/07/18 00:14:05;;;;;;;14.32;6.15;;;;;;;21.07;63.20;94239.56;5112636;27;20058;-64
2021/07/18 00:16:32;;;;;;;8.38;4.72;;;;;;;21.05;64.27;94236.47;5109381;27;20791;-64
2021/07/18 00:18:59;;;;;;;16.98;4.78;;;;;;;20.83;65.32;94232.06;5108418;27;22101;-64
2021/07/18 00:21:26;;;;;;;7.55;5.28;;;;;;;20.78;65.33;94240.19;5109866;27;20047;-64
2021/07/18 00:23:54;;;;;;;14.90;6.57;;;;;;;20.66;66.16;94238.13;5111401;27;20134;-64
2021/07/18 00:26:22;;;;;;;7.75;5.07;;;;;;;20.62;66.18;94237.19;5114833;27;20045;-64
2021/07/18 00:28:49;;;;;;;8.35;6.00;;;;;;;20.61;65.80;94240.91;5112267;27;20527;-64
2021/07/18 00:31:17;;;;;;;8.30;5.68;;;;;;;20.55;65.94;94229.69;5114641;27;20564;-65
2021/07/18 00:33:44;;;;;;;10.48;6.88;;;;;;;20.54;65.67;94229.97;5111225;27;20043;-64
2021/07/18 00:36:11;;;;;;;13.30;7.45;;;;;;;20.52;66.38;94240.09;5110747;27;20040;-64
2021/07/18 00:38:38;;;;;;;13.30;6.88;;;;;;;20.50;65.63;94235.09;5110616;27;20035;-64
2021/07/18 00:41:05;;;;;;;12.20;6.95;;;;;;;20.50;66.10;94229.81;5110433;27;20039;-64
2021/07/18 00:43:32;;;;;;;12.93;6.72;;;;;;;20.43;67.04;94224.97;5111988;27;20081;-65
2021/07/18 00:46:00;;;;;;;12.75;6.63;;;;;;;20.39;66.87;94223.25;5114628;27;20048;-65
2021/07/18 00:48:30;;;;;;;11.52;6.13;;;;;;;20.42;66.17;94228.72;5107440;28;20062;-64
2021/07/18 00:50:58;;;;;;;20.60;5.88;;;;;;;20.47;65.77;94227.00;5107064;27;20052;-65
2021/07/18 00:53:25;;;;;;;10.30;5.80;;;;;;;20.51;65.98;94225.28;5108687;27;20053;-65
2021/07/18 00:55:53;;;;;;;9.50;4.97;;;;;;;20.42;65.51;94222.66;5108837;27;20039;-64
2021/07/18 00:58:21;;;;;;;13.98;5.80;;;;;;;20.46;65.26;94223.59;5090391;28;20147;-64
2021/07/18 01:00:48;;;;;;;13.63;4.88;;;;;;;20.48;65.55;94231.22;5111871;27;20120;-64
2021/07/18 01:03:16;;;;;;;9.95;5.15;;;;;;;20.44;65.19;94231.81;5109117;27;20501;-64
2021/07/18 01:05:43;;;;;;;11.75;5.55;;;;;;;20.42;65.50;94222.66;5108684;27;20114;-64
2021/07/18 01:08:10;;;;;;;6.97;5.32;;;;;;;20.43;65.48;94218.91;5107008;27;20039;-64
2021/07/18 01:10:38;;;;;;;6.70;5.20;;;;;;;20.39;65.71;94218.75;5108752;27;20046;-64
2021/07/18 01:13:05;;;;;;;13.13;5.50;;;;;;;20.35;65.80;94211.75;5107889;27;20131;-64
2021/07/18 01:15:38;;;;;;;19.23;6.45;;;;;;;20.28;66.51;94217.47;5110718;27;20424;-64
2021/07/18 01:18:07;;;;;;;17.38;5.68;;;;;;;20.18;66.85;94207.16;5108354;27;20108;-64
2021/07/18 01:20:34;;;;;;;13.38;6.20;;;;;;;20.21;66.67;94222.44;5108563;27;20070;-64
2021/07/18 01:23:01;;;;;;;8.40;5.72;;;;;;;20.13;66.52;94215.22;5107058;28;20132;-64
2021/07/18 01:25:29;;;;;;;10.65;5.72;;;;;;;20.09;67.01;94214.28;5105836;28;20056;-64
2021/07/18 01:27:56;;;;;;;12.90;5.22;;;;;;;20.00;66.98;94217.66;5107049;27;20459;-64
2021/07/18 01:30:22;;;;;;;12.95;6.55;;;;;;;19.98;67.41;94219.84;5107150;27;20493;-64
2021/07/18 01:32:49;;;;;;;8.50;5.72;;;;;;;19.93;68.00;94211.28;5108252;27;20776;-64
2021/07/18 01:35:16;;;;;;;8.63;6.25;;;;;;;19.75;68.46;94211.19;5109694;27;20493;-64
2021/07/18 01:37:43;;;;;;;9.57;5.65;;;;;;;19.77;69.38;94224.09;5106657;27;20042;-64
2021/07/18 01:40:10;;;;;;;7.68;5.70;;;;;;;19.82;69.54;94226.59;5089603;28;20044;-64
2021/07/18 01:42:41;;;;;;;13.25;5.65;;;;;;;19.84;68.24;94214.66;5106637;28;20040;-64
2021/07/18 01:45:09;;;;;;;9.60;5.80;;;;;;;19.78;68.92;94215.09;5106647;27;20482;-64
2021/07/18 01:47:35;;;;;;;8.52;5.18;;;;;;;19.82;69.01;94218.69;5106386;28;20097;-65
2021/07/18 01:50:05;;;;;;;11.85;6.35;;;;;;;19.81;68.45;94222.44;5105236;27;20036;-64
2021/07/18 01:52:32;;;;;;;12.00;5.72;;;;;;;19.73;68.52;94218.63;5106777;27;20505;-64
2021/07/18 01:54:59;;;;;;;7.57;5.75;;;;;;;19.71;69.38;94217.38;5106748;27;20097;-64
2021/07/18 01:57:26;;;;;;;9.23;6.60;;;;;;;19.66;68.60;94216.41;5108225;27;20039;-64
2021/07/18 01:59:53;;;;;;;7.63;5.97;;;;;;;19.65;69.02;94212.22;5107908;27;20512;-64
2021/07/18 02:02:20;;;;;;;12.77;5.88;;;;;;;19.61;69.48;94210.50;5111199;27;20039;-64
2021/07/18 02:04:50;;;;;;;10.98;6.10;;;;;;;19.65;69.42;94217.50;5106939;27;20497;-64
2021/07/18 02:07:17;;;;;;;9.27;5.75;;;;;;;19.68;68.64;94211.59;5106434;28;20433;-64
2021/07/18 02:09:44;;;;;;;10.05;6.07;;;;;;;19.68;68.96;94216.88;5109357;27;20036;-64
2021/07/18 02:12:11;;;;;;;13.40;5.97;;;;;;;19.62;68.95;94217.31;5109105;27;20090;-64
2021/07/18 02:14:39;;;;;;;14.15;5.55;;;;;;;19.56;69.73;94218.53;5107952;27;20497;-64
2021/07/18 02:17:06;;;;;;;14.93;5.78;;;;;;;19.51;69.49;94216.00;5106194;27;20058;-64
2021/07/18 02:19:34;;;;;;;7.95;4.80;;;;;;;19.46;69.90;94219.53;5107640;28;20043;-64
2021/07/18 02:22:01;;;;;;;12.43;5.22;;;;;;;19.44;69.38;94230.41;5107764;27;20039;-65
2021/07/18 02:24:29;;;;;;;9.50;5.68;;;;;;;19.41;69.19;94222.31;5106942;28;20063;-64
2021/07/18 02:26:56;;;;;;;9.50;5.95;;;;;;;19.37;69.63;94226.63;5105830;28;20049;-65
2021/07/18 02:29:24;;;;;;;15.48;5.78;;;;;;;19.31;70.39;94225.22;5108347;27;20031;-64
2021/07/18 02:31:52;;;;;;;10.15;5.60;;;;;;;19.21;69.77;94227.00;5109767;27;20036;-64
2021/07/18 02:34:19;;;;;;;11.70;5.63;;;;;;;19.22;70.69;94215.34;5107425;28;20416;-64
2021/07/18 02:36:46;;;;;;;14.40;5.53;;;;;;;19.31;70.14;94217.28;5105600;28;20043;-64
2021/07/18 02:39:13;;;;;;;13.10;5.43;;;;;;;19.29;70.46;94210.44;5108215;28;20027;-65
2021/07/18 02:41:40;;;;;;;14.88;6.30;;;;;;;19.33;69.74;94215.91;5105520;28;20047;-64
2021/07/18 02:44:07;;;;;;;8.10;5.40;;;;;;;19.29;69.52;94220.22;5105565;28;20459;-64
2021/07/18 02:46:35;;;;;;;15.60;5.70;;;;;;;19.21;70.00;94221.72;5110122;28;20067;-64
2021/07/18 02:49:02;;;;;;;13.30;5.65;;;;;;;19.14;70.86;94228.50;5104654;28;20055;-64
2021/07/18 02:51:29;;;;;;;9.70;5.88;;;;;;;19.06;70.43;94224.72;5104171;28;20047;-64
2021/07/18 02:53:56;;;;;;;18.30;6.75;;;;;;;18.98;70.98;94230.69;5104663;28;20097;-64
2021/07/18 02:56:24;;;;;;;14.32;6.65;;;;;;;18.90;71.30;94224.28;5105001;28;20040;-64
2021/07/18 02:58:51;;;;;;;24.30;6.30;;;;;;;18.85;71.19;94233.09;5105233;28;20032;-64
2021/07/18 03:01:18;;;;;;;21.45;5.80;;;;;;;18.79;71.63;94223.69;5105137;28;20046;-64
2021/07/18 03:03:45;;;;;;;16.90;6.55;;;;;;;18.79;72.20;94228.97;5105687;28;20424;-65
2021/07/18 03:06:11;;;;;;;15.30;6.30;;;;;;;18.77;72.48;94235.63;5105184;28;20043;-64
2021/07/18 03:08:38;;;;;;;26.77;6.63;;;;;;;18.78;72.60;94226.59;5104926;28;20071;-64
2021/07/18 03:11:06;;;;;;;15.48;6.05;;;;;;;18.75;72.18;94235.91;5104173;28;20089;-64
2021/07/18 03:13:33;;;;;;;13.95;6.13;;;;;;;18.69;72.03;94235.25;5104504;28;20417;-64
2021/07/18 03:16:00;;;;;;;13.35;6.85;;;;;;;18.66;72.06;94241.09;5103340;28;20048;-64
2021/07/18 03:18:27;;;;;;;10.35;6.07;;;;;;;18.61;72.60;94253.63;5106215;28;20047;-64
2021/07/18 03:20:53;;;;;;;13.60;6.60;;;;;;;18.60;72.38;94250.19;5104135;28;20036;-64
2021/07/18 03:23:20;;;;;;;15.45;6.53;;;;;;;18.61;72.40;94243.06;5104461;28;20501;-64
2021/07/18 03:25:47;;;;;;;10.73;6.60;;;;;;;18.61;72.76;94243.06;5105079;28;20092;-64
2021/07/18 03:28:14;;;;;;;17.75;7.70;;;;;;;18.58;73.22;94241.78;5105117;28;20378;-64
2021/07/18 03:30:40;;;;;;;13.20;6.43;;;;;;;18.60;73.32;94241.50;5105139;28;20050;-65
2021/07/18 03:33:07;;;;;;;10.80;6.32;;;;;;;18.59;73.28;94251.28;5105250;28;20074;-64
2021/07/18 03:35:34;;;;;;;11.68;7.43;;;;;;;18.57;74.04;94252.66;5106442;27;20054;-64
2021/07/18 03:38:01;;;;;;;16.05;6.45;;;;;;;18.56;74.45;94253.72;5108122;28;20047;-65
2021/07/18 03:40:28;;;;;;;21.65;7.30;;;;;;;18.53;75.34;94253.22;5108539;28;20470;-65
2021/07/18 03:42:56;;;;;;;11.63;6.93;;;;;;;18.42;76.55;94249.25;5108772;27;20082;-65
2021/07/18 03:45:23;;;;;;;17.15;7.32;;;;;;;18.51;76.11;94258.03;5109008;27;20457;-64
2021/07/18 03:47:50;;;;;;;9.82;5.80;;;;;;;18.57;75.56;94257.94;5108795;28;20039;-64
2021/07/18 03:50:16;;;;;;;11.32;6.55;;;;;;;18.65;75.46;94262.50;5106645;27;20100;-64
2021/07/18 03:52:44;;;;;;;9.13;6.00;;;;;;;18.72;75.09;94260.22;5108954;28;20040;-64
2021/07/18 03:55:13;;;;;;;11.77;6.70;;;;;;;18.77;75.05;94252.22;5107403;28;20051;-64
2021/07/18 03:57:40;;;;;;;13.93;6.60;;;;;;;18.82;75.38;94249.50;5108813;28;20046;-64
2021/07/18 04:00:08;;;;;;;12.00;6.10;;;;;;;18.85;75.31;94251.56;5108646;27;20038;-64
2021/07/18 04:02:35;;;;;;;14.55;6.20;;;;;;;18.87;75.96;94254.69;5107889;27;20547;-64
2021/07/18 04:05:02;;;;;;;13.05;7.55;;;;;;;18.87;76.23;94254.69;5108189;28;20505;-64
2021/07/18 04:07:33;;;;;;;19.80;8.48;;;;;;;18.80;77.29;94256.09;5107133;27;20162;-64
2021/07/18 04:10:01;;;;;;;10.40;7.03;;;;;;;18.72;77.74;94252.31;5108443;28;20559;-64
2021/07/18 04:12:28;;;;;;;8.65;6.70;;;;;;;18.72;78.12;94254.97;5108547;27;20044;-64
2021/07/18 04:14:55;;;;;;;8.38;5.43;;;;;;;18.77;78.14;94257.50;5107711;27;20043;-64
2021/07/18 04:17:22;;;;;;;8.57;6.35;;;;;;;18.87;77.93;94252.03;5109573;27;20027;-64
2021/07/18 04:19:49;;;;;;;14.02;6.82;;;;;;;19.00;77.47;94260.22;5108464;28;20036;-65
2021/07/18 04:22:16;;;;;;;11.52;7.05;;;;;;;19.06;77.88;94269.56;5107975;28;20054;-64
2021/07/18 04:24:43;;;;;;;16.02;5.75;;;;;;;19.14;76.95;94266.25;5107961;28;20051;-64
2021/07/18 04:27:10;;;;;;;9.93;5.28;;;;;;;19.16;76.41;94258.81;5108122;28;20075;-64
2021/07/18 04:29:37;;;;;;;10.23;5.97;;;;;;;19.35;75.72;94276.31;5108069;27;20046;-64
2021/07/18 04:32:04;;;;;;;7.85;5.72;;;;;;;19.46;74.44;94280.28;5107905;28;20046;-65
2021/07/18 04:34:32;;;;;;;8.05;5.65;;;;;;;19.59;74.09;94287.38;5108341;28;20071;-65
2021/07/18 04:36:59;;;;;;;10.85;5.93;;;;;;;19.70;73.75;94281.84;5108087;28;20047;-65
2021/07/18 04:39:26;;;;;;;10.35;4.90;;;;;;;19.75;73.21;94276.47;5107727;27;20046;-64
2021/07/18 04:41:53;;;;;;;11.93;5.20;;;;;;;19.90;72.80;94291.94;5108087;27;20039;-65
2021/07/18 04:44:20;;;;;;;10.90;5.20;;;;;;;20.01;72.01;94287.97;5107846;27;20043;-65
2021/07/18 04:46:47;;;;;;;8.35;5.28;;;;;;;20.13;72.53;94295.34;5107699;28;20398;-65
2021/07/18 04:49:14;;;;;;;7.22;4.68;;;;;;;20.24;71.66;94293.22;5107130;27;20131;-65
2021/07/18 04:51:41;;;;;;;10.13;4.93;;;;;;;20.34;71.34;94295.56;5106159;28;20406;-65
2021/07/18 04:54:11;;;;;;;7.45;5.20;;;;;;;20.43;70.96;94287.66;5107642;28;20110;-65
2021/07/18 04:56:38;;;;;;;10.23;4.70;;;;;;;20.55;69.59;94297.69;5107821;27;20489;-65
2021/07/18 04:59:06;;;;;;;10.75;4.70;;;;;;;20.64;69.99;94298.50;5106858;27;20047;-65
2021/07/18 05:01:33;;;;;;;9.60;4.78;;;;;;;20.67;69.80;94282.03;5088051;28;20095;-65
2021/07/18 05:04:00;;;;;;;6.53;4.70;;;;;;;20.81;69.54;94298.56;5107534;28;20043;-65
2021/07/18 05:06:27;;;;;;;12.20;5.53;;;;;;;20.96;69.06;94299.22;5089780;28;20090;-65
2021/07/18 05:08:54;;;;;;;9.43;5.57;;;;;;;20.98;68.57;94297.03;5107302;28;20035;-65
2021/07/18 05:11:21;;;;;;;18.40;5.30;;;;;;;21.11;68.47;94297.97;5107097;28;20040;-65
2021/07/18 05:13:50;;;;;;;11.68;5.28;;;;;;;21.20;68.21;94296.88;5107181;28;20420;-65
2021/07/18 05:16:17;;;;;;;12.27;5.75;;;;;;;21.27;68.85;94304.38;5107303;27;20096;-65
2021/07/18 05:18:45;;;;;;;11.90;5.75;;;;;;;21.39;68.25;94301.09;5107412;28;20039;-66
2021/07/18 05:21:12;;;;;;;10.48;6.43;;;;;;;21.45;68.13;94297.25;5107251;28;22072;-65
2021/07/18 05:23:39;;;;;;;12.13;6.38;;;;;;;21.58;67.23;94298.94;5105961;28;20105;-65
2021/07/18 05:26:06;;;;;;;9.98;5.05;;;;;;;21.65;67.90;94297.69;5107418;27;20500;-65
2021/07/18 05:28:32;;;;;;;13.38;5.43;;;;;;;21.74;67.15;94296.59;5106751;28;20043;-64
2021/07/18 05:30:59;;;;;;;8.45;4.97;;;;;;;21.85;67.31;94307.63;5106549;28;20462;-65
2021/07/18 05:33:26;;;;;;;7.97;5.57;;;;;;;21.95;66.98;94309.97;5106949;28;20036;-65
2021/07/18 05:35:53;;;;;;;8.05;5.35;;;;;;;21.94;66.72;94300.44;5106711;28;20048;-65
2021/07/18 05:38:20;;;;;;;9.68;6.00;;;;;;;22.01;66.90;94299.19;5106890;28;20115;-65
2021/07/18 05:40:59;;;;;;;16.20;5.68;;;;;;;22.03;66.41;94297.00;5106440;28;20127;-65
2021/07/18 05:43:26;;;;;;;10.15;5.60;;;;;;;22.03;67.38;94292.47;5106639;28;20118;-65
2021/07/18 05:45:52;;;;;;;15.88;6.00;;;;;;;22.18;68.32;94293.06;5107768;27;20502;-65
2021/07/18 05:48:23;;;;;;;12.32;5.95;;;;;;;22.28;67.40;94298.81;5108977;27;20044;-65
2021/07/18 05:50:54;;;;;;;6.93;5.75;;;;;;;22.33;66.16;94296.00;5106064;27;20417;-65
2021/07/18 05:53:20;;;;;;;10.85;6.18;;;;;;;22.41;67.26;94290.97;5109466;27;20428;-65
2021/07/18 05:55:47;;;;;;;9.13;5.68;;;;;;;22.51;66.74;94290.63;5108484;27;20050;-65
2021/07/18 05:58:14;;;;;;;7.43;6.15;;;;;;;22.69;66.44;94292.09;5108514;27;20508;-65
2021/07/18 06:00:41;;;;;;;8.20;5.82;;;;;;;22.76;66.07;94290.78;5107042;27;20036;-66
2021/07/18 06:03:08;;;;;;;18.45;6.30;;;;;;;22.76;65.60;94296.09;5110151;27;20050;-65
2021/07/18 06:05:35;;;;;;;16.25;6.72;;;;;;;22.75;66.22;94289.25;5107553;27;20482;-65
2021/07/18 06:08:03;;;;;;;11.38;5.60;;;;;;;22.68;64.81;94284.44;5105624;28;20050;-65
2021/07/18 06:10:30;;;;;;;8.15;4.97;;;;;;;22.86;64.15;94295.75;5103475;28;20409;-65
2021/07/18 06:12:57;;;;;;;10.00;5.22;;;;;;;23.02;64.90;94288.75;5104858;28;20108;-66
2021/07/18 06:15:25;;;;;;;11.05;5.28;;;;;;;23.18;62.20;94285.56;5104395;28;20043;-66
2021/07/18 06:17:51;;;;;;;7.95;5.35;;;;;;;23.37;63.87;94282.44;5105172;28;20054;-66
2021/07/18 06:20:19;;;;;;;9.75;5.00;;;;;;;23.40;62.51;94271.19;5104344;27;20028;-65
2021/07/18 06:22:47;;;;;;;13.18;5.90;;;;;;;23.56;61.72;94279.34;5105021;27;20047;-65
2021/07/18 06:25:14;;;;;;;10.15;6.30;;;;;;;23.63;61.76;94268.94;5087891;28;20047;-66
2021/07/18 06:27:41;;;;;;;9.23;4.90;;;;;;;23.79;61.95;94277.09;5105824;28;20489;-66
2021/07/18 06:30:10;;;;;;;17.83;5.40;;;;;;;23.85;61.31;94260.59;5105355;28;20040;-65
2021/07/18 06:32:38;;;;;;;8.45;5.13;;;;;;;24.00;59.87;94261.88;5087260;28;20043;-66
2021/07/18 06:35:06;;;;;;;11.93;6.47;;;;;;;24.17;59.83;94266.22;5105779;28;20493;-66
2021/07/18 06:37:34;;;;;;;11.43;4.68;;;;;;;24.22;59.54;94263.34;5105491;27;20043;-66
2021/07/18 06:40:04;;;;;;;12.60;5.47;;;;;;;24.30;60.15;94268.91;5105537;28;20138;-66
2021/07/18 06:42:32;;;;;;;6.35;5.10;;;;;;;24.20;59.98;94265.56;5105421;28;20073;-66
2021/07/18 06:44:59;;;;;;;10.80;4.78;;;;;;;24.41;60.02;94264.69;5106004;28;20123;-66
2021/07/18 06:47:26;;;;;;;37.38;7.13;;;;;;;24.63;59.68;94265.38;5104950;28;20538;-66
2021/07/18 06:49:55;;;;;;;8.82;5.78;;;;;;;24.84;58.87;94266.03;5104212;28;20083;-66
2021/07/18 06:52:22;;;;;;;9.80;5.03;;;;;;;24.97;58.82;94254.25;5104535;28;20543;-66
2021/07/18 06:54:49;;;;;;;10.73;5.03;;;;;;;24.91;57.26;94255.59;5106881;28;20043;-66
2021/07/18 06:57:15;;;;;;;14.00;5.25;;;;;;;25.10;57.06;94248.88;5104203;28;20050;-66
2021/07/18 06:59:42;;;;;;;7.00;3.92;;;;;;;25.20;54.19;94245.75;5103962;28;20051;-66
2021/07/18 07:02:09;;;;;;;11.32;5.07;;;;;;;25.23;54.42;94244.28;5104381;28;20035;-65
2021/07/18 07:04:37;;;;;;;9.68;4.68;;;;;;;25.36;53.94;94238.63;5104928;28;20108;-66
2021/07/18 07:07:04;;;;;;;6.43;4.22;;;;;;;25.43;53.78;94242.59;5105248;28;20048;-66
2021/07/18 07:09:31;;;;;;;11.88;5.20;;;;;;;25.46;52.66;94236.56;5102844;28;20039;-66
2021/07/18 07:11:58;;;;;;;8.43;5.00;;;;;;;25.62;53.10;94240.06;5107764;28;20032;-66
2021/07/18 07:14:26;;;;;;;11.85;5.53;;;;;;;25.71;54.04;94232.69;5109151;28;20126;-66
2021/07/18 07:16:53;;;;;;;10.05;4.85;;;;;;;25.93;52.93;94234.03;5107865;27;20040;-65
2021/07/18 07:19:20;;;;;;;9.82;4.55;;;;;;;26.15;51.46;94233.81;5088331;28;20051;-65
2021/07/18 07:21:47;;;;;;;11.88;5.72;;;;;;;26.26;51.01;94229.50;5107895;27;20038;-66
2021/07/18 07:24:14;;;;;;;7.97;4.65;;;;;;;26.43;50.15;94229.13;5089810;28;20050;-66
2021/07/18 07:26:41;;;;;;;14.93;5.28;;;;;;;26.44;49.50;94225.34;5108310;28;20531;-66
2021/07/18 07:29:08;;;;;;;9.00;4.43;;;;;;;26.58;49.03;94224.09;5108301;27;20497;-65
2021/07/18 07:31:34;;;;;;;8.55;5.05;;;;;;;26.65;50.07;94232.31;5108370;27;20412;-65
2021/07/18 07:34:02;;;;;;;15.80;4.50;;;;;;;26.78;47.61;94233.00;5108458;28;20116;-66
2021/07/18 07:36:29;;;;;;;12.27;4.93;;;;;;;26.94;48.62;94230.25;5108733;28;20531;-66
2021/07/18 07:38:56;;;;;;;25.70;4.82;;;;;;;27.04;47.15;94229.72;5108761;27;20073;-66
2021/07/18 07:41:23;;;;;;;10.73;4.55;;;;;;;27.06;47.14;94232.81;5104084;28;20035;-65
2021/07/18 07:43:56;;;;;;;9.93;4.53;;;;;;;27.16;47.72;94216.22;5107119;27;20402;-66
2021/07/18 07:46:24;;;;;;;25.00;5.43;;;;;;;27.47;47.52;94225.25;5107546;27;20535;-67
2021/07/18 07:48:51;;;;;;;9.40;4.95;;;;;;;27.61;46.52;94230.88;5090004;28;20180;-66
2021/07/18 07:51:19;;;;;;;10.55;3.70;;;;;;;27.74;47.34;94225.34;5106784;27;20047;-66
2021/07/18 07:53:47;;;;;;;9.43;4.47;;;;;;;27.93;45.71;94233.38;5106170;27;20036;-66
2021/07/18 07:56:13;;;;;;;6.55;4.43;;;;;;;27.98;45.41;94227.72;5109043;27;20038;-66
2021/07/18 07:58:40;;;;;;;11.15;4.30;;;;;;;27.90;45.33;94220.69;5106815;27;20058;-66
2021/07/18 08:01:07;;;;;;;10.63;5.00;;;;;;;27.87;45.27;94234.75;5107567;28;20440;-66
2021/07/18 08:03:34;;;;;;;14.07;4.80;;;;;;;28.24;44.49;94228.91;5108147;27;20051;-66
2021/07/18 08:06:01;;;;;;;10.80;4.47;;;;;;;28.40;44.09;94224.19;5107322;28;20118;-66
2021/07/18 08:08:28;;;;;;;6.88;4.10;;;;;;;28.57;44.61;94224.84;5108134;28;20063;-66
2021/07/18 08:11:07;;;;;;;13.63;4.55;;;;;;;28.31;43.10;94214.88;5107124;27;20570;-66
2021/07/18 08:13:34;;;;;;;8.25;4.53;;;;;;;28.37;42.41;94216.88;5106851;27;20039;-65
2021/07/18 08:16:01;;;;;;;7.75;4.20;;;;;;;28.48;42.59;94210.91;5107619;27;20047;-66
2021/07/18 08:18:34;;;;;;;17.85;4.15;;;;;;;28.79;40.65;94216.00;5106636;28;20100;-65
2021/07/18 08:21:03;;;;;;;10.98;4.10;;;;;;;29.10;39.86;94208.72;5107050;27;20047;-66
2021/07/18 08:23:31;;;;;;;14.32;4.55;;;;;;;29.23;39.86;94205.84;5088218;28;20050;-66
2021/07/18 08:25:58;;;;;;;11.18;4.10;;;;;;;29.34;39.92;94207.50;5107678;27;20054;-66
2021/07/18 08:28:25;;;;;;;15.45;4.13;;;;;;;29.16;38.87;94193.88;5107375;28;20039;-66
2021/07/18 08:30:52;;;;;;;11.35;4.22;;;;;;;29.38;40.04;94191.44;5106544;28;20040;-66
2021/07/18 08:33:19;;;;;;;14.15;4.13;;;;;;;29.76;39.76;94183.44;5088429;28;20050;-66
2021/07/18 08:35:46;;;;;;;9.55;3.95;;;;;;;29.98;38.29;94189.75;5107232;27;20104;-66
2021/07/18 08:38:13;;;;;;;8.95;4.10;;;;;;;30.20;38.27;94186.13;5107023;27;20050;-67
2021/07/18 08:40:39;;;;;;;15.05;4.40;;;;;;;30.42;37.73;94180.94;5107548;27;20048;-67
2021/07/18 08:43:06;;;;;;;12.63;3.90;;;;;;;30.47;38.14;94177.91;5106114;27;20040;-66
2021/07/18 08:45:33;;;;;;;14.30;4.70;;;;;;;30.30;38.64;94180.03;5106653;28;20449;-66
2021/07/18 08:48:00;;;;;;;15.25;4.13;;;;;;;30.49;37.97;94180.97;5105861;27;20143;-66
2021/07/18 08:50:28;;;;;;;14.32;5.10;;;;;;;30.48;37.49;94174.03;5107588;27;20063;-66
2021/07/18 08:52:55;;;;;;;10.80;3.97;;;;;;;30.82;38.14;94171.16;5106650;27;20046;-66
2021/07/18 08:55:24;;;;;;;10.90;3.95;;;;;;;30.99;37.32;94175.09;5107561;27;20058;-66
2021/07/18 08:57:52;;;;;;;8.07;3.75;;;;;;;30.92;36.83;94169.69;5106833;27;20065;-66
2021/07/18 09:00:21;;;;;;;18.27;4.57;;;;;;;30.41;35.89;94174.00;5106377;28;20036;-66
2021/07/18 09:02:48;;;;;;;9.43;3.60;;;;;;;30.65;36.90;94162.66;5105205;27;20058;-65
2021/07/18 09:05:14;;;;;;;12.05;3.40;;;;;;;31.12;35.87;94173.66;5106808;28;20042;-66
2021/07/18 09:07:46;;;;;;;4.82;3.80;;;;;;;31.34;36.92;94174.47;5105990;27;20078;-66
2021/07/18 09:10:15;;;;;;;9.80;3.47;;;;;;;31.27;34.53;94157.56;5106772;28;20412;-66
2021/07/18 09:13:07;;;;;;;16.35;4.03;;;;;;;31.12;33.92;94164.81;5105622;28;20055;-65
2021/07/18 09:15:54;;;;;;;8.05;3.22;;;;;;;31.03;33.93;94165.16;5106951;28;20396;-66
2021/07/18 09:18:24;;;;;;;10.70;3.85;;;;;;;31.22;34.81;94158.69;5106000;28;20042;-66
2021/07/18 09:20:56;;;;;;;16.13;3.40;;;;;;;31.22;33.18;94156.78;5106934;28;20051;-66
2021/07/18 09:23:30;;;;;;;8.23;3.13;;;;;;;30.93;33.90;94153.19;5108938;27;20412;-66
2021/07/18 09:26:25;;;;;;;9.10;3.78;;;;;;;31.37;33.77;94156.81;5106566;28;20035;-66
2021/07/18 09:28:53;;;;;;;9.82;3.28;;;;;;;31.47;31.83;94149.91;5105845;28;20051;-65
2021/07/18 09:31:38;;;;;;;13.60;3.40;;;;;;;31.86;32.65;94151.94;5106901;27;20514;-66
2021/07/18 09:34:09;;;;;;;12.82;3.13;;;;;;;31.96;32.98;94153.84;5086940;28;20044;-66
2021/07/18 09:36:36;;;;;;;11.55;3.10;;;;;;;32.06;31.51;94147.72;5107429;27;20413;-66
2021/07/18 09:39:08;;;;;;;7.65;3.03;;;;;;;31.94;30.52;94153.47;5106910;28;20044;-66
2021/07/18 09:41:36;;;;;;;11.95;3.83;;;;;;;31.30;30.62;94151.44;5106213;28;20040;-66
2021/07/18 09:44:04;;;;;;;17.10;3.28;;;;;;;31.45;31.28;94142.22;5107037;28;20062;-65
2021/07/18 09:46:33;;;;;;;10.77;3.65;;;;;;;31.20;31.11;94147.53;5107151;28;20050;-65
2021/07/18 09:49:03;;;;;;;14.13;3.50;;;;;;;31.36;30.82;94145.28;5106543;27;20134;-65
2021/07/18 09:51:31;;;;;;;14.00;3.25;;;;;;;31.75;30.72;94143.84;5103861;28;20520;-66
2021/07/18 09:54:13;;;;;;;9.50;3.28;;;;;;;31.92;29.06;94137.69;5107116;28;20112;-66
2021/07/18 09:56:40;;;;;;;17.80;3.38;;;;;;;31.81;29.87;94140.38;5105694;28;20059;-66
2021/07/18 09:59:07;;;;;;;14.45;3.28;;;;;;;31.71;28.79;94135.78;5106521;28;20084;-66
2021/07/18 10:01:34;;;;;;;20.20;3.50;;;;;;;31.60;29.26;94138.44;5106442;27;20043;-66
2021/07/18 10:04:03;;;;;;;13.60;2.88;;;;;;;31.86;29.09;94135.78;5106601;28;20052;-66
2021/07/18 10:06:34;;;;;;;8.05;3.75;;;;;;;32.09;30.10;94130.81;5105317;28;20039;-66
2021/07/18 10:09:09;;;;;;;11.00;3.50;;;;;;;32.34;30.40;94135.38;5106453;28;20036;-66
2021/07/18 10:11:36;;;;;;;16.08;3.45;;;;;;;32.16;28.48;94130.78;5105037;28;20122;-65
2021/07/18 10:14:05;;;;;;;9.13;3.05;;;;;;;32.29;28.23;94133.09;5106481;28;20043;-65
2021/07/18 10:16:32;;;;;;;13.07;3.13;;;;;;;32.54;29.22;94139.19;5106122;28;20032;-66
2021/07/18 10:18:59;;;;;;;17.45;3.60;;;;;;;32.66;28.17;94139.97;5106110;28;20050;-65
2021/07/18 10:21:28;;;;;;;8.60;2.70;;;;;;;33.13;28.08;94135.19;5106075;28;20496;-66
2021/07/18 10:23:57;;;;;;;16.33;4.32;;;;;;;33.16;27.16;94142.50;5088085;28;20055;-66
2021/07/18 10:26:33;;;;;;;15.93;2.78;;;;;;;32.79;26.90;94124.91;5105085;28;20054;-66
2021/07/18 10:29:00;;;;;;;7.95;2.72;;;;;;;32.68;28.38;94127.66;5104758;28;20134;-65
2021/07/18 10:31:35;;;;;;;7.32;3.20;;;;;;;33.28;28.08;94130.50;5105857;28;20108;-66
2021/07/18 10:34:05;;;;;;;12.52;3.30;;;;;;;33.48;26.25;94117.28;5105194;28;20047;-65
2021/07/18 10:36:34;;;;;;;6.78;2.72;;;;;;;33.68;26.86;94126.41;5105865;28;20833;-66
2021/07/18 10:39:30;;;;;;;12.60;3.42;;;;;;;33.56;25.11;94124.16;5106112;28;20138;-66
2021/07/18 10:42:01;;;;;;;15.90;3.33;;;;;;;32.93;26.92;94121.38;5104523;28;20130;-65
2021/07/18 10:44:50;;;;;;;6.50;2.53;;;;;;;33.27;27.08;94127.03;5104495;28;20043;-66
2021/07/18 10:47:17;;;;;;;8.43;3.00;;;;;;;33.50;26.93;94136.56;5101491;28;20040;-65
2021/07/18 10:49:49;;;;;;;10.60;2.63;;;;;;;33.55;24.07;94128.03;5096834;28;20058;-65
2021/07/18 10:52:17;;;;;;;8.90;4.50;;;;;;;32.93;27.50;94127.53;5103399;28;20590;-65
2021/07/18 10:54:45;;;;;;;9.45;2.90;;;;;;;32.75;27.46;94132.22;5105572;28;20055;-65
2021/07/18 10:57:33;;;;;;;19.83;4.03;;;;;;;32.82;27.49;94137.59;5104815;28;20432;-65
2021/07/18 11:00:23;;;;;;;6.50;2.55;;;;;;;32.84;29.64;94145.31;5103766;28;20053;-65
2021/07/18 11:03:08;;;;;;;11.35;2.90;;;;;;;33.17;27.63;94130.56;5102151;28;20046;-65
2021/07/18 11:05:47;;;;;;;5.03;2.92;;;;;;;33.30;26.49;94139.75;5101128;28;20128;-65
2021/07/18 11:08:14;;;;;;;7.13;3.20;;;;;;;33.91;28.48;94127.81;5103330;28;20114;-65
2021/07/18 11:10:49;;;;;;;5.85;3.10;;;;;;;33.98;28.27;94122.34;5085300;28;20451;-65
2021/07/18 11:13:16;;;;;;;9.52;3.00;;;;;;;34.01;28.74;94132.34;5103201;28;20531;-65
2021/07/18 11:15:43;;;;;;;13.93;4.10;;;;;;;34.60;31.95;94130.69;5103787;28;20044;-64
2021/07/18 11:18:14;;;;;;;11.82;4.32;;;;;;;34.88;31.64;94131.56;5103578;28;20051;-65
2021/07/18 11:20:56;;;;;;;12.95;5.22;;;;;;;35.31;32.10;94131.03;5103662;28;20067;-65
2021/07/18 11:23:46;;;;;;;9.13;4.03;;;;;;;35.47;30.81;94128.50;5102557;28;20032;-66
2021/07/18 11:26:16;;;;;;;8.98;4.38;;;;;;;35.86;29.75;94129.91;5104508;28;20039;-65
2021/07/18 11:31:27;;;;;;;8.20;6.60;;;;;;;35.94;30.08;94112.34;5102476;28;20051;-64
2021/07/18 11:33:58;;;;;;;10.88;5.80;;;;;;;35.89;29.06;94120.94;5103981;28;20070;-64
2021/07/18 11:36:31;;;;;;;17.95;7.60;;;;;;;35.28;30.20;94110.22;5104466;28;20074;-64
2021/07/18 11:39:12;;;;;;;10.98;5.95;;;;;;;34.96;30.10;94103.25;5104813;28;20048;-63